Archival Weather

John F Kennedy Intl

New York, New York (KJFK)

Report from: Thursday, September 21, 2023 7:51 PM EDT
Current time: Sunday, February 25, 2024 5:30 PM EST

Current weather – Weather history – Daily summaries
Weather forecast

Temperature17.8°C (64.0°F)
Dew point11.7°C (53.1°F)
Winds 6 kts (3.1 m/s, 6.9 mph) Southeast (130°)
Visibility10 mi. (16.1 km)
Clouds Few clouds 5,000 ft. (1,524 m)
Ceiling: Broken clouds 25,000 ft. (7,620 m)
Altimeter30.28 in.Hg (1025 mB)
Relative humidity68 %
Density altitude117 ft. (36 m)
Sea-level pressure102.5 kPa (1025 mB, 30.28 in.Hg)
Max temp last 6 hours23.3°C (73.9°F)
Min temp last 6 hours17.8°C (64.0°F)
Remarks Automated weather observing station with precipitation discriminator
Pressure rising more quickly
Flight conditions Visual Meteorological Conditions
Raw dataKJFK 212351Z 13006KT 10SM FEW050 BKN250 18/12 A3028 RMK AO2 SLP253 T01780117 10233 20178 53007
An error has occurred. This application may no longer respond until reloaded. Reload 🗙